sensor_id;sensor_type;location;lat;lon;timestamp;pressure;altitude;pressure_sealevel;temperature;humidity
58622;BME280;44389;51.578;5.456;2024-02-28T00:02:16;101889.56;;;0.69;100.00
58622;BME280;44389;51.578;5.456;2024-02-28T00:04:41;101881.75;;;0.76;100.00
58622;BME280;44389;51.578;5.456;2024-02-28T00:07:07;101874.38;;;0.79;100.00
58622;BME280;44389;51.578;5.456;2024-02-28T00:09:32;101877.03;;;0.81;100.00
58622;BME280;44389;51.578;5.456;2024-02-28T00:11:57;101878.06;;;0.83;100.00
58622;BME280;44389;51.578;5.456;2024-02-28T00:14:23;101881.38;;;0.92;100.00
58622;BME280;44389;51.578;5.456;2024-02-28T00:16:48;101895.22;;;0.96;100.00
58622;BME280;44389;51.578;5.456;2024-02-28T00:19:13;101888.78;;;1.00;100.00
58622;BME280;44389;51.578;5.456;2024-02-28T00:21:40;101883.41;;;0.96;100.00
58622;BME280;44389;51.578;5.456;2024-02-28T00:24:06;101878.63;;;1.00;100.00
58622;BME280;44389;51.578;5.456;2024-02-28T00:26:31;101878.88;;;1.03;100.00
58622;BME280;44389;51.578;5.456;2024-02-28T00:28:57;101876.34;;;1.03;100.00
58622;BME280;44389;51.578;5.456;2024-02-28T00:31:22;101872.00;;;1.02;100.00
58622;BME280;44389;51.578;5.456;2024-02-28T00:33:47;101865.03;;;0.99;100.00
58622;BME280;44389;51.578;5.456;2024-02-28T00:36:13;101866.94;;;1.02;100.00
58622;BME280;44389;51.578;5.456;2024-02-28T00:38:39;101869.72;;;0.94;100.00
58622;BME280;44389;51.578;5.456;2024-02-28T00:41:04;101858.53;;;0.92;100.00
58622;BME280;44389;51.578;5.456;2024-02-28T00:43:29;101864.75;;;0.86;100.00
58622;BME280;44389;51.578;5.456;2024-02-28T00:45:54;101868.91;;;0.85;100.00
58622;BME280;44389;51.578;5.456;2024-02-28T00:48:21;101871.94;;;0.71;100.00
58622;BME280;44389;51.578;5.456;2024-02-28T00:50:46;101866.09;;;0.72;100.00
58622;BME280;44389;51.578;5.456;2024-02-28T00:53:12;101869.16;;;0.68;100.00
58622;BME280;44389;51.578;5.456;2024-02-28T00:55:37;101871.69;;;0.68;100.00
58622;BME280;44389;51.578;5.456;2024-02-28T00:58:02;101880.78;;;0.65;100.00
58622;BME280;44389;51.578;5.456;2024-02-28T01:00:28;101869.47;;;0.62;100.00
58622;BME280;44389;51.578;5.456;2024-02-28T01:02:53;101871.34;;;0.54;100.00
58622;BME280;44389;51.578;5.456;2024-02-28T01:05:18;101870.06;;;0.49;100.00
58622;BME280;44389;51.578;5.456;2024-02-28T01:07:44;101872.34;;;0.46;100.00
58622;BME280;44389;51.578;5.456;2024-02-28T01:10:09;101872.09;;;0.43;100.00
58622;BME280;44389;51.578;5.456;2024-02-28T01:12:35;101873.69;;;0.32;100.00
58622;BME280;44389;51.578;5.456;2024-02-28T01:15:00;101866.03;;;0.22;100.00
58622;BME280;44389;51.578;5.456;2024-02-28T01:17:25;101866.94;;;0.22;100.00
58622;BME280;44389;51.578;5.456;2024-02-28T01:19:51;101854.22;;;0.12;100.00
58622;BME280;44389;51.578;5.456;2024-02-28T01:22:16;101855.28;;;0.05;100.00
58622;BME280;44389;51.578;5.456;2024-02-28T01:24:41;101854.97;;;-0.08;100.00
58622;BME280;44389;51.578;5.456;2024-02-28T01:27:07;101849.63;;;-0.11;100.00
58622;BME280;44389;51.578;5.456;2024-02-28T01:29:32;101847.59;;;-0.15;100.00
58622;BME280;44389;51.578;5.456;2024-02-28T01:31:57;101849.63;;;-0.11;100.00
58622;BME280;44389;51.578;5.456;2024-02-28T01:34:23;101851.31;;;-0.02;100.00
58622;BME280;44389;51.578;5.456;2024-02-28T01:36:48;101856.63;;;-0.09;100.00
58622;BME280;44389;51.578;5.456;2024-02-28T01:39:13;101862.03;;;-0.34;100.00
58622;BME280;44389;51.578;5.456;2024-02-28T01:41:39;101854.28;;;-0.35;100.00
58622;BME280;44389;51.578;5.456;2024-02-28T01:44:04;101865.72;;;-0.30;100.00
58622;BME280;44389;51.578;5.456;2024-02-28T01:46:30;101874.22;;;-0.29;100.00
58622;BME280;44389;51.578;5.456;2024-02-28T01:48:56;101872.56;;;-0.29;100.00
58622;BME280;44389;51.578;5.456;2024-02-28T01:51:24;101868.81;;;-0.24;100.00
58622;BME280;44389;51.578;5.456;2024-02-28T01:53:51;101875.31;;;-0.36;100.00
58622;BME280;44389;51.578;5.456;2024-02-28T01:56:17;101877.31;;;-0.23;100.00
58622;BME280;44389;51.578;5.456;2024-02-28T01:58:46;101878.31;;;-0.59;100.00
58622;BME280;44389;51.578;5.456;2024-02-28T02:01:13;101875.47;;;-0.62;100.00
58622;BME280;44389;51.578;5.456;2024-02-28T02:03:39;101869.31;;;-0.56;100.00
58622;BME280;44389;51.578;5.456;2024-02-28T02:06:05;101877.31;;;-0.70;100.00
58622;BME280;44389;51.578;5.456;2024-02-28T02:08:30;101877.66;;;-0.76;100.00
58622;BME280;44389;51.578;5.456;2024-02-28T02:10:56;101875.13;;;-0.76;100.00
58622;BME280;44389;51.578;5.456;2024-02-28T02:13:21;101871.22;;;-0.72;100.00
58622;BME280;44389;51.578;5.456;2024-02-28T02:15:47;101882.69;;;-0.76;100.00
58622;BME280;44389;51.578;5.456;2024-02-28T02:18:12;101884.31;;;-0.76;100.00
58622;BME280;44389;51.578;5.456;2024-02-28T02:20:38;101875.81;;;-0.68;100.00
58622;BME280;44389;51.578;5.456;2024-02-28T02:23:05;101867.59;;;-0.65;100.00
58622;BME280;44389;51.578;5.456;2024-02-28T02:25:31;101866.09;;;-0.63;100.00
58622;BME280;44389;51.578;5.456;2024-02-28T02:27:56;101872.47;;;-0.58;100.00
58622;BME280;44389;51.578;5.456;2024-02-28T02:30:21;101864.13;;;-0.57;100.00
58622;BME280;44389;51.578;5.456;2024-02-28T02:32:47;101870.22;;;-0.55;100.00
58622;BME280;44389;51.578;5.456;2024-02-28T02:35:12;101867.34;;;-0.50;100.00
58622;BME280;44389;51.578;5.456;2024-02-28T02:37:43;101866.53;;;-0.59;100.00
58622;BME280;44389;51.578;5.456;2024-02-28T02:40:10;101868.53;;;-0.74;100.00
58622;BME280;44389;51.578;5.456;2024-02-28T02:42:35;101881.66;;;-0.78;100.00
58622;BME280;44389;51.578;5.456;2024-02-28T02:45:01;101884.84;;;-0.61;100.00
58622;BME280;44389;51.578;5.456;2024-02-28T02:47:26;101880.53;;;-0.62;100.00
58622;BME280;44389;51.578;5.456;2024-02-28T02:49:51;101882.88;;;-0.55;100.00
58622;BME280;44389;51.578;5.456;2024-02-28T02:52:16;101878.44;;;-0.58;100.00
58622;BME280;44389;51.578;5.456;2024-02-28T02:54:42;101886.16;;;-0.56;100.00
58622;BME280;44389;51.578;5.456;2024-02-28T02:57:07;101887.59;;;-0.50;100.00
58622;BME280;44389;51.578;5.456;2024-02-28T02:59:32;101888.22;;;-0.52;100.00
58622;BME280;44389;51.578;5.456;2024-02-28T03:01:57;101891.50;;;-0.53;100.00
58622;BME280;44389;51.578;5.456;2024-02-28T03:04:23;101886.72;;;-0.50;100.00
58622;BME280;44389;51.578;5.456;2024-02-28T03:06:48;101891.06;;;-0.49;100.00
58622;BME280;44389;51.578;5.456;2024-02-28T03:09:13;101879.88;;;-0.51;100.00
58622;BME280;44389;51.578;5.456;2024-02-28T03:11:38;101879.78;;;-0.61;100.00
58622;BME280;44389;51.578;5.456;2024-02-28T03:14:04;101883.63;;;-0.56;100.00
58622;BME280;44389;51.578;5.456;2024-02-28T03:16:29;101883.38;;;-0.59;100.00
58622;BME280;44389;51.578;5.456;2024-02-28T03:18:54;101881.84;;;-0.57;100.00
58622;BME280;44389;51.578;5.456;2024-02-28T03:21:20;101885.91;;;-0.59;100.00
58622;BME280;44389;51.578;5.456;2024-02-28T03:23:46;101887.22;;;-0.54;100.00
58622;BME280;44389;51.578;5.456;2024-02-28T03:26:11;101884.69;;;-0.54;100.00
58622;BME280;44389;51.578;5.456;2024-02-28T03:28:36;101883.16;;;-0.52;100.00
58622;BME280;44389;51.578;5.456;2024-02-28T03:31:02;101882.53;;;-0.50;100.00
58622;BME280;44389;51.578;5.456;2024-02-28T03:33:27;101881.94;;;-0.47;100.00
58622;BME280;44389;51.578;5.456;2024-02-28T03:35:53;101879.22;;;-0.40;100.00
58622;BME280;44389;51.578;5.456;2024-02-28T03:38:18;101883.78;;;-0.36;100.00
58622;BME280;44389;51.578;5.456;2024-02-28T03:40:43;101871.56;;;-0.31;100.00
58622;BME280;44389;51.578;5.456;2024-02-28T03:43:08;101874.84;;;-0.32;100.00
58622;BME280;44389;51.578;5.456;2024-02-28T03:45:37;101884.63;;;-0.26;100.00
58622;BME280;44389;51.578;5.456;2024-02-28T03:48:04;101883.63;;;-0.28;100.00
58622;BME280;44389;51.578;5.456;2024-02-28T03:50:29;101879.56;;;-0.26;100.00
58622;BME280;44389;51.578;5.456;2024-02-28T03:52:54;101874.47;;;-0.26;100.00
58622;BME280;44389;51.578;5.456;2024-02-28T03:55:19;101876.00;;;-0.28;100.00
58622;BME280;44389;51.578;5.456;2024-02-28T03:57:48;101875.22;;;-0.27;100.00
58622;BME280;44389;51.578;5.456;2024-02-28T04:00:15;101884.63;;;-0.26;100.00
58622;BME280;44389;51.578;5.456;2024-02-28T04:02:40;101874.78;;;-0.23;100.00
58622;BME280;44389;51.578;5.456;2024-02-28T04:05:06;101877.56;;;-0.20;100.00
58622;BME280;44389;51.578;5.456;2024-02-28T04:07:31;101877.31;;;-0.23;100.00
58622;BME280;44389;51.578;5.456;2024-02-28T04:09:56;101882.78;;;-0.19;100.00
58622;BME280;44389;51.578;5.456;2024-02-28T04:12:21;101875.03;;;-0.20;100.00
58622;BME280;44389;51.578;5.456;2024-02-28T04:14:47;101872.09;;;-0.25;100.00
58622;BME280;44389;51.578;5.456;2024-02-28T04:17:12;101879.22;;;-0.21;100.00
58622;BME280;44389;51.578;5.456;2024-02-28T04:19:37;101875.47;;;-0.15;100.00
58622;BME280;44389;51.578;5.456;2024-02-28T04:22:04;101882.16;;;-0.16;100.00
58622;BME280;44389;51.578;5.456;2024-02-28T04:24:29;101880.66;;;-0.14;100.00
58622;BME280;44389;51.578;5.456;2024-02-28T04:26:54;101883.94;;;-0.15;100.00
58622;BME280;44389;51.578;5.456;2024-02-28T04:29:20;101881.06;;;-0.09;100.00
58622;BME280;44389;51.578;5.456;2024-02-28T04:31:45;101879.44;;;-0.09;100.00
58622;BME280;44389;51.578;5.456;2024-02-28T04:34:10;101882.97;;;-0.07;100.00
58622;BME280;44389;51.578;5.456;2024-02-28T04:36:35;101885.06;;;-0.03;100.00
58622;BME280;44389;51.578;5.456;2024-02-28T04:39:01;101877.97;;;0.04;100.00
58622;BME280;44389;51.578;5.456;2024-02-28T04:41:27;101883.31;;;0.07;100.00
58622;BME280;44389;51.578;5.456;2024-02-28T04:43:53;101883.59;;;0.10;100.00
58622;BME280;44389;51.578;5.456;2024-02-28T04:46:18;101872.81;;;0.12;100.00
58622;BME280;44389;51.578;5.456;2024-02-28T04:48:43;101881.31;;;0.13;100.00
58622;BME280;44389;51.578;5.456;2024-02-28T04:51:09;101881.47;;;0.14;100.00
58622;BME280;44389;51.578;5.456;2024-02-28T04:53:34;101889.34;;;0.18;100.00
58622;BME280;44389;51.578;5.456;2024-02-28T04:55:59;101899.72;;;0.21;100.00
58622;BME280;44389;51.578;5.456;2024-02-28T04:58:25;101894.53;;;0.19;100.00
58622;BME280;44389;51.578;5.456;2024-02-28T05:00:50;101895.56;;;0.21;100.00
58622;BME280;44389;51.578;5.456;2024-02-28T05:03:16;101895.28;;;0.18;100.00
58622;BME280;44389;51.578;5.456;2024-02-28T05:05:42;101900.34;;;0.18;100.00
58622;BME280;44389;51.578;5.456;2024-02-28T05:08:07;101903.66;;;0.17;100.00
58622;BME280;44389;51.578;5.456;2024-02-28T05:10:32;101913.38;;;0.12;100.00
58622;BME280;44389;51.578;5.456;2024-02-28T05:12:59;101914.00;;;0.10;100.00
58622;BME280;44389;51.578;5.456;2024-02-28T05:15:24;101924.88;;;0.09;100.00
58622;BME280;44389;51.578;5.456;2024-02-28T05:17:51;101919.56;;;0.06;100.00
58622;BME280;44389;51.578;5.456;2024-02-28T05:20:17;101919.25;;;0.03;100.00
58622;BME280;44389;51.578;5.456;2024-02-28T05:22:42;101921.81;;;0.03;100.00
58622;BME280;44389;51.578;5.456;2024-02-28T05:25:07;101928.28;;;-0.01;100.00
58622;BME280;44389;51.578;5.456;2024-02-28T05:27:33;101934.47;;;0.03;100.00
58622;BME280;44389;51.578;5.456;2024-02-28T05:29:58;101930.31;;;0.03;100.00
58622;BME280;44389;51.578;5.456;2024-02-28T05:32:26;101928.03;;;0.06;100.00
58622;BME280;44389;51.578;5.456;2024-02-28T05:34:51;101932.50;;;0.09;100.00
58622;BME280;44389;51.578;5.456;2024-02-28T05:37:17;101930.09;;;0.10;100.00
58622;BME280;44389;51.578;5.456;2024-02-28T05:39:43;101933.78;;;0.14;100.00
58622;BME280;44389;51.578;5.456;2024-02-28T05:42:08;101933.06;;;0.15;100.00
58622;BME280;44389;51.578;5.456;2024-02-28T05:44:34;101931.56;;;0.17;100.00
58622;BME280;44389;51.578;5.456;2024-02-28T05:46:59;101932.84;;;0.22;100.00
58622;BME280;44389;51.578;5.456;2024-02-28T05:49:25;101934.59;;;0.23;100.00
58622;BME280;44389;51.578;5.456;2024-02-28T05:51:51;101941.59;;;0.26;100.00
58622;BME280;44389;51.578;5.456;2024-02-28T05:54:16;101944.56;;;0.30;100.00
58622;BME280;44389;51.578;5.456;2024-02-28T05:56:41;101937.97;;;0.32;100.00
58622;BME280;44389;51.578;5.456;2024-02-28T05:59:06;101933.91;;;0.35;100.00
58622;BME280;44389;51.578;5.456;2024-02-28T06:01:32;101934.22;;;0.38;100.00
58622;BME280;44389;51.578;5.456;2024-02-28T06:03:57;101930.00;;;0.38;100.00
58622;BME280;44389;51.578;5.456;2024-02-28T06:06:23;101928.22;;;0.37;100.00
58622;BME280;44389;51.578;5.456;2024-02-28T06:08:48;101936.31;;;0.33;100.00
58622;BME280;44389;51.578;5.456;2024-02-28T06:11:13;101934.00;;;0.26;100.00
58622;BME280;44389;51.578;5.456;2024-02-28T06:13:42;101937.94;;;0.22;100.00
58622;BME280;44389;51.578;5.456;2024-02-28T06:16:07;101940.03;;;0.18;100.00
58622;BME280;44389;51.578;5.456;2024-02-28T06:18:33;101937.84;;;0.12;100.00
58622;BME280;44389;51.578;5.456;2024-02-28T06:20:59;101935.44;;;0.13;100.00
58622;BME280;44389;51.578;5.456;2024-02-28T06:23:24;101936.56;;;0.07;100.00
58622;BME280;44389;51.578;5.456;2024-02-28T06:25:50;101938.94;;;0.05;100.00
58622;BME280;44389;51.578;5.456;2024-02-28T06:28:15;101945.53;;;0.03;100.00
58622;BME280;44389;51.578;5.456;2024-02-28T06:30:40;101945.41;;;0.02;100.00
58622;BME280;44389;51.578;5.456;2024-02-28T06:33:06;101950.34;;;0.00;100.00
58622;BME280;44389;51.578;5.456;2024-02-28T06:35:33;101955.31;;;0.09;100.00
58622;BME280;44389;51.578;5.456;2024-02-28T06:37:59;101955.53;;;0.02;100.00
58622;BME280;44389;51.578;5.456;2024-02-28T06:40:24;101967.44;;;0.03;100.00
58622;BME280;44389;51.578;5.456;2024-02-28T06:42:49;101971.63;;;0.02;100.00
58622;BME280;44389;51.578;5.456;2024-02-28T06:45:14;101974.41;;;0.05;100.00
58622;BME280;44389;51.578;5.456;2024-02-28T06:47:40;101971.44;;;0.09;100.00
58622;BME280;44389;51.578;5.456;2024-02-28T06:50:06;101968.41;;;0.13;100.00
58622;BME280;44389;51.578;5.456;2024-02-28T06:52:31;101967.94;;;0.18;100.00
58622;BME280;44389;51.578;5.456;2024-02-28T06:54:57;101970.72;;;0.21;100.00
58622;BME280;44389;51.578;5.456;2024-02-28T06:57:23;101979.50;;;0.24;100.00
58622;BME280;44389;51.578;5.456;2024-02-28T06:59:48;101979.00;;;0.28;100.00
58622;BME280;44389;51.578;5.456;2024-02-28T07:02:14;101979.31;;;0.31;100.00
58622;BME280;44389;51.578;5.456;2024-02-28T07:04:40;101982.09;;;0.35;100.00
58622;BME280;44389;51.578;5.456;2024-02-28T07:07:07;101984.94;;;0.38;100.00
58622;BME280;44389;51.578;5.456;2024-02-28T07:09:32;101990.25;;;0.41;100.00
58622;BME280;44389;51.578;5.456;2024-02-28T07:11:58;101994.72;;;0.43;100.00
58622;BME280;44389;51.578;5.456;2024-02-28T07:14:24;101991.56;;;0.46;100.00
58622;BME280;44389;51.578;5.456;2024-02-28T07:16:49;102001.34;;;0.52;100.00
58622;BME280;44389;51.578;5.456;2024-02-28T07:19:17;102013.09;;;0.60;100.00
58622;BME280;44389;51.578;5.456;2024-02-28T07:21:42;102010.06;;;0.64;100.00
58622;BME280;44389;51.578;5.456;2024-02-28T07:24:08;102014.78;;;0.70;100.00
58622;BME280;44389;51.578;5.456;2024-02-28T07:26:33;102011.78;;;0.74;100.00
58622;BME280;44389;51.578;5.456;2024-02-28T07:28:58;102005.47;;;0.79;100.00
58622;BME280;44389;51.578;5.456;2024-02-28T07:31:24;102002.41;;;0.83;100.00
58622;BME280;44389;51.578;5.456;2024-02-28T07:33:49;102006.13;;;0.87;100.00
58622;BME280;44389;51.578;5.456;2024-02-28T07:36:14;102003.22;;;0.92;100.00
58622;BME280;44389;51.578;5.456;2024-02-28T07:38:43;102013.00;;;0.98;100.00
58622;BME280;44389;51.578;5.456;2024-02-28T07:41:08;102012.66;;;1.04;100.00
58622;BME280;44389;51.578;5.456;2024-02-28T07:43:33;102015.75;;;1.10;100.00
58622;BME280;44389;51.578;5.456;2024-02-28T07:46:11;102019.56;;;1.15;100.00
58622;BME280;44389;51.578;5.456;2024-02-28T07:48:37;102015.00;;;1.21;100.00
58622;BME280;44389;51.578;5.456;2024-02-28T07:51:09;102028.84;;;1.25;100.00
58622;BME280;44389;51.578;5.456;2024-02-28T07:53:35;102024.94;;;1.28;100.00
58622;BME280;44389;51.578;5.456;2024-02-28T07:56:00;102025.47;;;1.35;100.00
58622;BME280;44389;51.578;5.456;2024-02-28T07:58:25;102032.59;;;1.39;100.00
58622;BME280;44389;51.578;5.456;2024-02-28T08:00:51;102033.88;;;1.44;100.00
58622;BME280;44389;51.578;5.456;2024-02-28T08:03:19;102043.66;;;1.50;100.00
58622;BME280;44389;51.578;5.456;2024-02-28T08:05:45;102048.00;;;1.51;100.00
58622;BME280;44389;51.578;5.456;2024-02-28T08:08:11;102054.75;;;1.60;100.00
58622;BME280;44389;51.578;5.456;2024-02-28T08:10:37;102055.91;;;1.64;100.00
58622;BME280;44389;51.578;5.456;2024-02-28T08:13:06;102058.59;;;1.76;100.00
58622;BME280;44389;51.578;5.456;2024-02-28T08:15:32;102061.00;;;1.85;100.00
58622;BME280;44389;51.578;5.456;2024-02-28T08:17:58;102061.66;;;2.03;100.00
58622;BME280;44389;51.578;5.456;2024-02-28T08:20:23;102054.31;;;2.16;100.00
58622;BME280;44389;51.578;5.456;2024-02-28T08:22:49;102054.31;;;2.26;100.00
58622;BME280;44389;51.578;5.456;2024-02-28T08:25:14;102058.47;;;2.46;100.00
58622;BME280;44389;51.578;5.456;2024-02-28T08:27:41;102062.69;;;2.56;100.00
58622;BME280;44389;51.578;5.456;2024-02-28T08:30:06;102057.03;;;2.71;100.00
58622;BME280;44389;51.578;5.456;2024-02-28T08:32:32;102073.31;;;2.83;100.00
58622;BME280;44389;51.578;5.456;2024-02-28T08:34:58;102074.59;;;2.78;100.00
58622;BME280;44389;51.578;5.456;2024-02-28T08:37:26;102081.84;;;2.73;100.00
58622;BME280;44389;51.578;5.456;2024-02-28T08:39:54;102079.44;;;2.75;100.00
58622;BME280;44389;51.578;5.456;2024-02-28T08:42:23;102078.66;;;2.86;100.00
58622;BME280;44389;51.578;5.456;2024-02-28T08:44:48;102082.88;;;2.86;100.00
58622;BME280;44389;51.578;5.456;2024-02-28T08:47:13;102080.19;;;2.94;100.00
58622;BME280;44389;51.578;5.456;2024-02-28T08:49:39;102070.84;;;3.05;100.00
58622;BME280;44389;51.578;5.456;2024-02-28T08:52:04;102071.97;;;3.09;100.00
58622;BME280;44389;51.578;5.456;2024-02-28T08:54:30;102082.25;;;3.21;100.00
58622;BME280;44389;51.578;5.456;2024-02-28T08:56:55;102076.28;;;3.20;100.00
58622;BME280;44389;51.578;5.456;2024-02-28T08:59:21;102072.88;;;3.32;100.00
58622;BME280;44389;51.578;5.456;2024-02-28T09:01:47;102083.72;;;3.29;100.00
58622;BME280;44389;51.578;5.456;2024-02-28T09:04:13;102079.59;;;3.19;100.00
58622;BME280;44389;51.578;5.456;2024-02-28T09:06:38;102084.16;;;3.23;100.00
58622;BME280;44389;51.578;5.456;2024-02-28T09:09:03;102077.22;;;3.33;100.00
58622;BME280;44389;51.578;5.456;2024-02-28T09:11:29;102079.50;;;3.40;100.00
58622;BME280;44389;51.578;5.456;2024-02-28T09:13:54;102088.44;;;3.35;100.00
58622;BME280;44389;51.578;5.456;2024-02-28T09:16:20;102089.38;;;3.47;100.00
58622;BME280;44389;51.578;5.456;2024-02-28T09:18:45;102072.50;;;3.59;100.00
58622;BME280;44389;51.578;5.456;2024-02-28T09:21:10;102075.41;;;3.64;100.00
58622;BME280;44389;51.578;5.456;2024-02-28T09:23:35;102067.94;;;3.77;100.00
58622;BME280;44389;51.578;5.456;2024-02-28T09:26:04;102070.00;;;3.93;100.00
58622;BME280;44389;51.578;5.456;2024-02-28T09:28:30;102070.69;;;4.03;100.00
58622;BME280;44389;51.578;5.456;2024-02-28T09:30:55;102069.00;;;4.25;100.00
58622;BME280;44389;51.578;5.456;2024-02-28T09:33:20;102061.25;;;4.36;100.00
58622;BME280;44389;51.578;5.456;2024-02-28T09:35:45;102061.25;;;4.48;100.00
58622;BME280;44389;51.578;5.456;2024-02-28T09:38:11;102073.94;;;4.58;100.00
58622;BME280;44389;51.578;5.456;2024-02-28T09:40:36;102066.16;;;4.56;100.00
58622;BME280;44389;51.578;5.456;2024-02-28T09:43:02;102065.97;;;4.65;100.00
58622;BME280;44389;51.578;5.456;2024-02-28T09:45:29;102070.41;;;4.56;100.00
58622;BME280;44389;51.578;5.456;2024-02-28T09:48:01;102071.38;;;4.58;100.00
58622;BME280;44389;51.578;5.456;2024-02-28T09:50:27;102076.16;;;4.53;100.00
58622;BME280;44389;51.578;5.456;2024-02-28T09:52:55;102071.81;;;4.52;100.00
58622;BME280;44389;51.578;5.456;2024-02-28T09:55:21;102071.94;;;4.54;100.00
58622;BME280;44389;51.578;5.456;2024-02-28T09:57:48;102068.50;;;4.53;100.00
58622;BME280;44389;51.578;5.456;2024-02-28T10:00:14;102057.63;;;4.56;100.00
58622;BME280;44389;51.578;5.456;2024-02-28T10:02:42;102058.50;;;4.68;100.00
58622;BME280;44389;51.578;5.456;2024-02-28T10:05:10;102063.63;;;4.68;100.00
58622;BME280;44389;51.578;5.456;2024-02-28T10:07:35;102063.50;;;4.78;100.00
58622;BME280;44389;51.578;5.456;2024-02-28T10:10:00;102059.50;;;4.82;100.00
58622;BME280;44389;51.578;5.456;2024-02-28T10:12:26;102064.97;;;4.99;100.00
58622;BME280;44389;51.578;5.456;2024-02-28T10:14:51;102077.69;;;5.22;100.00
58622;BME280;44389;51.578;5.456;2024-02-28T10:17:17;102076.88;;;5.47;100.00
58622;BME280;44389;51.578;5.456;2024-02-28T10:19:42;102072.75;;;5.49;100.00
58622;BME280;44389;51.578;5.456;2024-02-28T10:22:07;102078.09;;;5.52;100.00
58622;BME280;44389;51.578;5.456;2024-02-28T10:24:36;102082.75;;;5.46;100.00
58622;BME280;44389;51.578;5.456;2024-02-28T10:27:03;102071.88;;;5.37;100.00
58622;BME280;44389;51.578;5.456;2024-02-28T10:29:28;102079.22;;;5.44;100.00
58622;BME280;44389;51.578;5.456;2024-02-28T10:31:57;102077.00;;;5.37;100.00
58622;BME280;44389;51.578;5.456;2024-02-28T10:34:23;102068.91;;;5.31;100.00
58622;BME280;44389;51.578;5.456;2024-02-28T10:36:49;102077.13;;;5.26;100.00
58622;BME280;44389;51.578;5.456;2024-02-28T10:39:15;102076.81;;;5.22;100.00
58622;BME280;44389;51.578;5.456;2024-02-28T10:41:41;102074.16;;;5.20;100.00
58622;BME280;44389;51.578;5.456;2024-02-28T10:44:07;102063.28;;;5.23;100.00
58622;BME280;44389;51.578;5.456;2024-02-28T10:46:32;102063.47;;;5.26;100.00
58622;BME280;44389;51.578;5.456;2024-02-28T10:48:58;102066.69;;;5.35;100.00
58622;BME280;44389;51.578;5.456;2024-02-28T10:51:24;102063.09;;;5.45;100.00
58622;BME280;44389;51.578;5.456;2024-02-28T10:54:07;102064.72;;;5.68;100.00
58622;BME280;44389;51.578;5.456;2024-02-28T10:56:33;102052.66;;;5.79;100.00
58622;BME280;44389;51.578;5.456;2024-02-28T10:58:59;102047.72;;;5.82;100.00
58622;BME280;44389;51.578;5.456;2024-02-28T11:01:25;102048.94;;;5.87;100.00
58622;BME280;44389;51.578;5.456;2024-02-28T11:03:51;102043.66;;;5.98;100.00
58622;BME280;44389;51.578;5.456;2024-02-28T11:06:18;102046.72;;;6.17;100.00
58622;BME280;44389;51.578;5.456;2024-02-28T11:08:47;102042.81;;;6.36;100.00
58622;BME280;44389;51.578;5.456;2024-02-28T11:11:20;102036.22;;;6.39;100.00
58622;BME280;44389;51.578;5.456;2024-02-28T11:13:53;102042.13;;;6.38;100.00
58622;BME280;44389;51.578;5.456;2024-02-28T11:16:31;102045.28;;;6.48;100.00
58622;BME280;44389;51.578;5.456;2024-02-28T11:18:57;102044.91;;;6.55;100.00
58622;BME280;44389;51.578;5.456;2024-02-28T11:21:26;102047.00;;;6.74;100.00
58622;BME280;44389;51.578;5.456;2024-02-28T11:23:57;102042.06;;;6.77;100.00
58622;BME280;44389;51.578;5.456;2024-02-28T11:26:23;102032.59;;;6.89;100.00
58622;BME280;44389;51.578;5.456;2024-02-28T11:28:49;102044.13;;;6.96;100.00
58622;BME280;44389;51.578;5.456;2024-02-28T11:31:14;102040.09;;;7.00;100.00
58622;BME280;44389;51.578;5.456;2024-02-28T11:33:40;102032.97;;;7.09;100.00
58622;BME280;44389;51.578;5.456;2024-02-28T11:36:06;102031.78;;;7.04;100.00
58622;BME280;44389;51.578;5.456;2024-02-28T11:38:34;102031.88;;;7.05;100.00
58622;BME280;44389;51.578;5.456;2024-02-28T11:41:03;102025.84;;;7.18;100.00
58622;BME280;44389;51.578;5.456;2024-02-28T11:43:30;102033.03;;;7.24;100.00
58622;BME280;44389;51.578;5.456;2024-02-28T11:45:56;102021.47;;;7.31;100.00
58622;BME280;44389;51.578;5.456;2024-02-28T11:48:22;102015.84;;;7.36;100.00
58622;BME280;44389;51.578;5.456;2024-02-28T11:50:47;102012.16;;;7.46;100.00
58622;BME280;44389;51.578;5.456;2024-02-28T11:53:13;102016.63;;;7.64;100.00
58622;BME280;44389;51.578;5.456;2024-02-28T11:55:38;102012.84;;;7.72;100.00
58622;BME280;44389;51.578;5.456;2024-02-28T11:58:09;102017.63;;;7.66;100.00
58622;BME280;44389;51.578;5.456;2024-02-28T12:00:46;102021.00;;;7.80;100.00
58622;BME280;44389;51.578;5.456;2024-02-28T12:03:11;102012.97;;;7.88;100.00
58622;BME280;44389;51.578;5.456;2024-02-28T12:05:38;102016.69;;;7.79;100.00
58622;BME280;44389;51.578;5.456;2024-02-28T12:08:04;102003.84;;;7.79;100.00
58622;BME280;44389;51.578;5.456;2024-02-28T12:10:29;102001.78;;;7.73;100.00
58622;BME280;44389;51.578;5.456;2024-02-28T12:12:59;102000.75;;;7.84;100.00
58622;BME280;44389;51.578;5.456;2024-02-28T12:15:24;101992.06;;;7.82;100.00
58622;BME280;44389;51.578;5.456;2024-02-28T12:17:49;101995.63;;;7.84;100.00
58622;BME280;44389;51.578;5.456;2024-02-28T12:20:17;102001.53;;;7.83;100.00
58622;BME280;44389;51.578;5.456;2024-02-28T12:22:42;101993.91;;;7.85;100.00
58622;BME280;44389;51.578;5.456;2024-02-28T12:25:08;101991.88;;;7.79;100.00
58622;BME280;44389;51.578;5.456;2024-02-28T12:27:34;101979.84;;;7.78;100.00
58622;BME280;44389;51.578;5.456;2024-02-28T12:29:59;101991.34;;;7.85;100.00
58622;BME280;44389;51.578;5.456;2024-02-28T12:32:25;101981.63;;;7.79;100.00
58622;BME280;44389;51.578;5.456;2024-02-28T12:34:50;101979.59;;;7.88;100.00
58622;BME280;44389;51.578;5.456;2024-02-28T12:37:15;101987.13;;;7.85;100.00
58622;BME280;44389;51.578;5.456;2024-02-28T12:39:40;101986.50;;;7.89;100.00
58622;BME280;44389;51.578;5.456;2024-02-28T12:42:06;101993.47;;;7.77;100.00